createdAt,value
2023-10-16T00:00:29.469Z,0.00
2023-10-16T00:01:09.106Z,0.00
2023-10-16T00:01:15.659Z,0.00
2023-10-16T00:02:04.298Z,0.00
2023-10-16T00:02:18.045Z,0.00
2023-10-16T00:02:50.663Z,0.00
2023-10-16T00:03:20.013Z,0.00
2023-10-16T00:03:51.035Z,0.00
2023-10-16T00:04:22.191Z,0.00
2023-10-16T00:04:52.662Z,0.00
2023-10-16T00:05:23.524Z,0.00
2023-10-16T00:05:54.429Z,0.00
2023-10-16T00:06:26.595Z,0.00
2023-10-16T00:06:57.109Z,0.00
2023-10-16T00:07:59.225Z,0.00
2023-10-16T00:08:30.982Z,0.00
2023-10-16T00:09:01.884Z,0.00
2023-10-16T00:09:32.043Z,0.00
2023-10-16T00:10:12.386Z,0.00
2023-10-16T00:10:38.120Z,0.00
2023-10-16T00:11:23.519Z,0.00
2023-10-16T00:11:37.068Z,0.00
2023-10-16T00:12:06.615Z,0.00
2023-10-16T00:12:55.475Z,0.00
2023-10-16T00:13:09.292Z,0.00
2023-10-16T00:13:39.789Z,0.00
2023-10-16T00:14:11.588Z,0.00
2023-10-16T00:14:41.706Z,0.00
2023-10-16T00:15:14.135Z,0.00
2023-10-16T00:15:45.554Z,0.00
2023-10-16T00:16:14.732Z,0.00
2023-10-16T00:16:46.202Z,0.00
2023-10-16T00:17:17.372Z,0.00
2023-10-16T00:17:48.779Z,0.00
2023-10-16T00:18:20.137Z,0.00
2023-10-16T00:18:52.040Z,0.00
2023-10-16T00:19:21.153Z,0.00
2023-10-16T00:20:12.907Z,0.00
2023-10-16T00:20:23.012Z,0.00
2023-10-16T00:20:54.234Z,0.00
2023-10-16T00:21:26.776Z,0.00
2023-10-16T00:21:55.504Z,0.00
2023-10-16T00:22:29.388Z,0.00
2023-10-16T00:22:57.973Z,0.00
2023-10-16T00:23:46.141Z,0.00
2023-10-16T00:23:59.902Z,0.00
2023-10-16T00:24:30.961Z,0.00
2023-10-16T00:25:02.250Z,0.00
2023-10-16T00:25:32.467Z,0.00
2023-10-16T00:26:03.575Z,0.00
2023-10-16T00:26:37.299Z,0.00
2023-10-16T00:27:06.361Z,0.00
2023-10-16T00:27:38.773Z,0.00
2023-10-16T00:28:12.254Z,0.00
2023-10-16T00:28:40.324Z,0.00
2023-10-16T00:29:11.714Z,0.00
2023-10-16T00:29:42.697Z,0.00
2023-10-16T00:30:16.464Z,0.00
2023-10-16T00:31:18.487Z,0.00
2023-10-16T00:31:47.621Z,0.00
2023-10-16T00:32:17.617Z,0.00
2023-10-16T00:32:49.978Z,0.00
2023-10-16T00:33:20.239Z,0.00
2023-10-16T00:33:53.098Z,0.00
2023-10-16T00:34:22.380Z,0.00
2023-10-16T00:34:53.208Z,0.00
2023-10-16T00:35:25.760Z,0.00
2023-10-16T00:35:54.905Z,0.00
2023-10-16T00:36:43.361Z,0.00
2023-10-16T00:36:56.786Z,0.00
2023-10-16T00:37:28.509Z,0.00
2023-10-16T00:38:16.805Z,0.00
2023-10-16T00:38:30.111Z,0.00
2023-10-16T00:39:01.959Z,0.00
2023-10-16T00:39:32.706Z,0.00
2023-10-16T00:40:11.612Z,0.00
2023-10-16T00:40:34.622Z,0.00
2023-10-16T00:41:02.859Z,0.00
2023-10-16T00:41:34.812Z,0.00
2023-10-16T00:42:05.838Z,0.00
2023-10-16T00:42:35.810Z,0.00
2023-10-16T00:43:07.140Z,0.00
2023-10-16T00:43:37.732Z,0.00
2023-10-16T00:44:09.513Z,0.00
2023-10-16T00:44:40.356Z,0.00
2023-10-16T00:45:12.831Z,0.00
2023-10-16T00:45:42.700Z,0.00
2023-10-16T00:46:13.265Z,0.00
2023-10-16T00:47:02.106Z,0.00
2023-10-16T00:47:15.118Z,0.00
2023-10-16T00:47:53.005Z,0.00
2023-10-16T00:48:18.303Z,0.00
2023-10-16T00:49:18.852Z,0.00
2023-10-16T00:49:50.966Z,0.00
2023-10-16T00:50:22.416Z,0.00
2023-10-16T00:50:52.419Z,0.00
2023-10-16T00:51:37.607Z,0.00
2023-10-16T00:51:53.123Z,0.00
2023-10-16T00:52:25.441Z,0.00
2023-10-16T00:52:55.720Z,0.00
2023-10-16T00:53:58.298Z,0.00
2023-10-16T00:54:29.219Z,0.00
2023-10-16T00:55:00.951Z,0.00
2023-10-16T00:55:31.728Z,0.00
2023-10-16T00:56:02.388Z,0.00
2023-10-16T00:56:33.395Z,0.00
2023-10-16T00:57:05.087Z,0.00
2023-10-16T00:57:34.933Z,0.00
2023-10-16T00:58:06.021Z,0.00
2023-10-16T00:58:36.500Z,0.00
2023-10-16T00:59:07.397Z,0.00
2023-10-16T00:59:38.901Z,0.00
2023-10-16T01:00:14.508Z,0.00
2023-10-16T01:00:41.028Z,0.00
2023-10-16T01:01:24.132Z,0.00
2023-10-16T01:01:43.368Z,0.00
2023-10-16T01:02:15.187Z,0.00
2023-10-16T01:02:44.892Z,0.00
2023-10-16T01:03:16.012Z,0.00
2023-10-16T01:03:47.084Z,0.00
2023-10-16T01:04:18.310Z,0.00
2023-10-16T01:05:06.859Z,0.00
2023-10-16T01:05:20.664Z,0.00
2023-10-16T01:05:51.463Z,0.00
2023-10-16T01:06:22.230Z,0.00
2023-10-16T01:06:53.723Z,0.00
2023-10-16T01:07:24.171Z,0.00
2023-10-16T01:07:54.592Z,0.00
2023-10-16T01:08:25.953Z,0.00
2023-10-16T01:08:56.961Z,0.00
2023-10-16T01:09:27.624Z,0.00
2023-10-16T01:09:59.137Z,0.00
2023-10-16T01:10:30.203Z,0.00
2023-10-16T01:11:01.830Z,0.00
2023-10-16T01:11:32.322Z,0.00
2023-10-16T01:12:03.187Z,0.00
2023-10-16T01:12:34.682Z,0.00
2023-10-16T01:13:04.703Z,0.00
2023-10-16T01:13:35.782Z,0.00
2023-10-16T01:14:07.033Z,0.00
2023-10-16T01:14:37.635Z,0.00
2023-10-16T01:15:11.443Z,0.00
2023-10-16T01:15:40.355Z,0.00
2023-10-16T01:16:11.523Z,0.00
2023-10-16T01:16:42.984Z,0.00
2023-10-16T01:17:13.156Z,0.00
2023-10-16T01:17:44.123Z,0.00
2023-10-16T01:18:15.278Z,0.00
2023-10-16T01:18:45.901Z,0.00
2023-10-16T01:19:16.701Z,0.00
2023-10-16T01:19:48.224Z,0.00
2023-10-16T01:20:20.324Z,0.00
2023-10-16T01:20:50.443Z,0.00
2023-10-16T01:21:21.809Z,0.00
2023-10-16T01:21:52.365Z,0.00
2023-10-16T01:22:23.496Z,0.00
2023-10-16T01:22:57.004Z,0.00
2023-10-16T01:23:27.273Z,0.00
2023-10-16T01:23:56.364Z,0.00
2023-10-16T01:24:27.071Z,0.00
2023-10-16T01:24:57.569Z,0.00
2023-10-16T01:25:31.129Z,0.00
2023-10-16T01:25:59.630Z,0.00
2023-10-16T01:26:31.744Z,0.00
2023-10-16T01:27:03.389Z,0.00
2023-10-16T01:27:32.477Z,0.00
2023-10-16T01:28:34.493Z,0.00
2023-10-16T01:29:05.932Z,0.00
2023-10-16T01:29:36.369Z,0.00
2023-10-16T01:30:15.733Z,0.00
2023-10-16T01:30:38.762Z,0.00
2023-10-16T01:31:10.263Z,0.00
2023-10-16T01:31:41.306Z,0.00
2023-10-16T01:32:12.611Z,0.00
2023-10-16T01:32:43.205Z,0.00
2023-10-16T01:33:14.243Z,0.00
2023-10-16T01:33:44.981Z,0.00
2023-10-16T01:34:16.164Z,0.00
2023-10-16T01:34:47.393Z,0.00
2023-10-16T01:35:18.730Z,0.00
2023-10-16T01:35:49.532Z,0.00
2023-10-16T01:36:20.094Z,0.00
2023-10-16T01:36:51.535Z,0.00
2023-10-16T01:37:22.658Z,0.00
2023-10-16T01:37:54.011Z,0.00
2023-10-16T01:38:24.232Z,0.00
2023-10-16T01:39:13.722Z,0.00
2023-10-16T01:39:26.868Z,0.00
2023-10-16T01:39:58.162Z,0.00
2023-10-16T01:40:28.293Z,0.00
2023-10-16T01:40:59.699Z,0.00
2023-10-16T01:41:29.753Z,0.00
2023-10-16T01:42:01.708Z,0.00
2023-10-16T01:42:33.018Z,0.00
2023-10-16T01:43:03.328Z,0.00
2023-10-16T01:43:33.802Z,0.00
2023-10-16T01:44:05.056Z,0.00
2023-10-16T01:44:36.078Z,0.00
2023-10-16T01:45:08.896Z,0.00
2023-10-16T01:45:38.404Z,0.00
2023-10-16T01:46:08.969Z,0.00
2023-10-16T01:46:40.676Z,0.00
2023-10-16T01:47:11.277Z,0.00
2023-10-16T01:47:42.780Z,0.00
2023-10-16T01:48:13.307Z,0.00
2023-10-16T01:48:44.835Z,0.00
2023-10-16T01:49:15.017Z,0.00
2023-10-16T01:49:45.932Z,0.00
2023-10-16T01:50:35.958Z,0.00
2023-10-16T01:50:47.872Z,0.00
2023-10-16T01:51:19.690Z,0.00
2023-10-16T01:51:50.890Z,0.00
2023-10-16T01:52:21.416Z,0.00
2023-10-16T01:52:52.743Z,0.00
2023-10-16T01:53:23.129Z,0.00
2023-10-16T01:53:53.447Z,0.00
2023-10-16T01:54:25.155Z,0.00
2023-10-16T01:54:55.927Z,0.00
2023-10-16T01:55:26.769Z,0.00
2023-10-16T01:55:57.721Z,0.00
2023-10-16T01:56:28.962Z,0.00
2023-10-16T01:57:01.929Z,0.00
2023-10-16T01:57:31.556Z,0.00
2023-10-16T01:58:03.392Z,0.00
2023-10-16T01:58:33.444Z,0.00
2023-10-16T01:59:03.784Z,0.00
2023-10-16T01:59:35.230Z,0.00
2023-10-16T02:00:07.907Z,0.00
2023-10-16T02:00:37.335Z,0.00
2023-10-16T02:01:07.997Z,0.00
2023-10-16T02:01:39.023Z,0.00
2023-10-16T02:02:27.779Z,0.00
2023-10-16T02:02:41.847Z,0.00
2023-10-16T02:03:12.582Z,0.00
2023-10-16T02:03:42.829Z,0.00
2023-10-16T02:04:14.541Z,0.00
2023-10-16T02:04:45.003Z,0.00
2023-10-16T02:05:16.740Z,0.00
2023-10-16T02:05:54.631Z,0.00
2023-10-16T02:06:18.867Z,0.00
2023-10-16T02:06:48.883Z,0.00
2023-10-16T02:07:20.329Z,0.00
2023-10-16T02:07:51.338Z,0.00
2023-10-16T02:08:23.119Z,0.00
2023-10-16T02:08:53.433Z,0.00
2023-10-16T02:09:25.720Z,0.00
2023-10-16T02:09:54.864Z,0.00
2023-10-16T02:10:28.312Z,0.00
2023-10-16T02:11:14.859Z,0.00
2023-10-16T02:11:28.370Z,0.00
2023-10-16T02:11:59.018Z,0.00
2023-10-16T02:12:31.049Z,0.00
2023-10-16T02:13:01.306Z,0.00
2023-10-16T02:13:33.249Z,0.00
2023-10-16T02:14:03.420Z,0.00
2023-10-16T02:14:33.794Z,0.00
2023-10-16T02:15:07.740Z,0.00
2023-10-16T02:15:35.657Z,0.00
2023-10-16T02:16:08.023Z,0.00
2023-10-16T02:16:38.103Z,0.00
2023-10-16T02:17:09.178Z,0.00
2023-10-16T02:17:40.599Z,0.00
2023-10-16T02:18:11.671Z,0.00
2023-10-16T02:18:42.005Z,0.00
2023-10-16T02:19:13.645Z,0.00
2023-10-16T02:20:02.603Z,0.00
2023-10-16T02:20:15.933Z,0.00
2023-10-16T02:20:46.634Z,0.00
2023-10-16T02:21:17.644Z,0.00
2023-10-16T02:21:48.387Z,0.00
2023-10-16T02:22:19.217Z,0.00
2023-10-16T02:22:50.878Z,0.00
2023-10-16T02:23:21.195Z,0.00
2023-10-16T02:23:52.360Z,0.00
2023-10-16T02:24:23.855Z,0.00
2023-10-16T02:24:53.872Z,0.00
2023-10-16T02:25:26.418Z,0.00
2023-10-16T02:25:57.047Z,0.00
2023-10-16T02:26:27.016Z,0.00
2023-10-16T02:26:58.629Z,0.00
2023-10-16T02:27:29.044Z,0.00
2023-10-16T02:28:00.682Z,0.00
2023-10-16T02:28:32.160Z,0.00
2023-10-16T02:29:02.608Z,0.00
2023-10-16T02:29:33.271Z,0.00
2023-10-16T02:30:06.129Z,0.00
2023-10-16T02:30:35.815Z,0.00
2023-10-16T02:31:06.582Z,0.00
2023-10-16T02:31:36.878Z,0.00
2023-10-16T02:32:09.031Z,0.00
2023-10-16T02:32:38.863Z,0.00
2023-10-16T02:33:10.270Z,0.00
2023-10-16T02:37:25.718Z,0.00
2023-10-16T02:37:49.789Z,0.00
2023-10-16T02:38:20.665Z,0.00
2023-10-16T02:38:52.089Z,0.00
2023-10-16T02:39:22.174Z,0.00
2023-10-16T02:39:54.179Z,0.00
2023-10-16T02:40:33.093Z,0.00
2023-10-16T02:40:55.713Z,0.00
2023-10-16T02:41:27.098Z,0.00
2023-10-16T02:41:57.405Z,0.00
2023-10-16T02:42:29.690Z,0.00
2023-10-16T02:43:01.319Z,0.00
2023-10-16T02:43:29.947Z,0.00
2023-10-16T02:44:01.706Z,0.00
2023-10-16T02:44:32.317Z,0.00
2023-10-16T02:45:05.405Z,0.00
2023-10-16T02:45:51.595Z,0.00
2023-10-16T02:46:05.953Z,0.00
2023-10-16T02:46:36.978Z,0.00
2023-10-16T02:47:07.717Z,0.00
2023-10-16T02:47:38.493Z,0.00
2023-10-16T02:48:10.727Z,0.00
2023-10-16T02:48:40.937Z,0.00
2023-10-16T02:49:12.548Z,0.00
2023-10-16T02:49:42.017Z,0.00
2023-10-16T02:50:14.125Z,0.00
2023-10-16T02:50:45.263Z,0.00
2023-10-16T02:51:15.918Z,0.00
2023-10-16T02:51:46.980Z,0.00
2023-10-16T02:52:18.803Z,0.00
2023-10-16T02:52:48.290Z,0.00
2023-10-16T02:53:20.980Z,0.00
2023-10-16T02:53:51.112Z,0.00
2023-10-16T02:54:21.364Z,0.00
2023-10-16T02:54:52.453Z,0.00
2023-10-16T02:55:24.025Z,0.00
2023-10-16T02:55:54.608Z,0.00
2023-10-16T02:56:26.552Z,0.00
2023-10-16T02:56:57.335Z,0.00
2023-10-16T02:57:27.704Z,0.00
2023-10-16T02:57:58.388Z,0.00
2023-10-16T02:58:30.022Z,0.00
2023-10-16T02:59:00.496Z,0.00
2023-10-16T02:59:32.493Z,0.00
2023-10-16T03:00:05.313Z,0.00
2023-10-16T03:00:34.072Z,0.00
2023-10-16T03:01:06.464Z,0.00
2023-10-16T03:01:36.216Z,0.00
2023-10-16T03:02:07.219Z,0.00
2023-10-16T03:02:38.128Z,0.00
2023-10-16T03:03:08.316Z,0.00
2023-10-16T03:03:39.106Z,0.00
2023-10-16T03:04:09.674Z,0.00
2023-10-16T03:04:40.546Z,0.00
2023-10-16T03:05:12.045Z,0.00
2023-10-16T03:05:43.267Z,0.00
2023-10-16T03:06:14.430Z,0.00
2023-10-16T03:06:44.611Z,0.00
2023-10-16T03:27:56.160Z,0.00
2023-10-16T03:28:27.449Z,0.00
2023-10-16T03:28:57.889Z,0.00
2023-10-16T03:29:29.355Z,0.00
2023-10-16T03:29:59.562Z,0.00
2023-10-16T03:30:31.052Z,0.00
2023-10-16T03:31:01.917Z,0.00
2023-10-16T03:31:33.893Z,0.00
2023-10-16T03:32:03.692Z,0.00
2023-10-16T03:33:06.158Z,0.00
2023-10-16T03:33:42.949Z,0.00
2023-10-16T03:34:07.920Z,0.00
2023-10-16T03:34:39.505Z,0.00
2023-10-16T03:35:10.779Z,0.00
2023-10-16T03:35:40.882Z,0.00
2023-10-16T03:36:11.816Z,0.00
2023-10-16T03:36:43.205Z,0.00
2023-10-16T03:37:14.042Z,0.00
2023-10-16T03:37:44.889Z,0.00
2023-10-16T03:38:16.622Z,0.00
2023-10-16T03:38:47.346Z,0.00
2023-10-16T03:39:18.095Z,0.00
2023-10-16T03:39:49.437Z,0.00
2023-10-16T03:40:23.771Z,0.00
2023-10-16T03:40:50.898Z,0.00
2023-10-16T03:41:21.659Z,0.00
2023-10-16T03:41:52.966Z,0.00
2023-10-16T03:42:24.216Z,0.00
2023-10-16T03:42:55.220Z,0.00
2023-10-16T03:43:26.343Z,0.00
2023-10-16T03:44:03.482Z,0.00
2023-10-16T03:44:28.007Z,0.00
2023-10-16T03:44:58.910Z,0.00
2023-10-16T03:45:29.925Z,0.00
2023-10-16T03:46:00.924Z,0.00
2023-10-16T03:46:31.770Z,0.00
2023-10-16T03:47:02.906Z,0.00
2023-10-16T03:47:34.099Z,0.00
2023-10-16T03:48:04.895Z,0.00
2023-10-16T03:48:36.358Z,0.00
2023-10-16T03:49:09.401Z,0.00
2023-10-16T03:49:39.166Z,0.00
2023-10-16T03:50:09.110Z,0.00
2023-10-16T03:50:39.753Z,0.00
2023-10-16T03:51:10.810Z,0.00
2023-10-16T03:51:41.739Z,0.00
2023-10-16T03:52:12.682Z,0.00
2023-10-16T03:52:44.360Z,0.00
2023-10-16T03:53:15.292Z,0.00
2023-10-16T03:53:46.431Z,0.00
2023-10-16T03:54:17.479Z,0.00
2023-10-16T03:54:48.315Z,0.00
2023-10-16T03:55:19.016Z,0.00
2023-10-16T03:55:50.085Z,0.00
2023-10-16T03:56:20.997Z,0.00
2023-10-16T03:56:52.056Z,0.00
2023-10-16T03:57:23.563Z,0.00
2023-10-16T03:57:54.034Z,0.00
2023-10-16T03:58:25.290Z,0.00
2023-10-16T03:58:56.643Z,0.00
2023-10-16T03:59:27.347Z,0.00
2023-10-16T03:59:57.835Z,0.00
2023-10-16T04:00:31.788Z,0.00
2023-10-16T04:01:00.456Z,0.00
2023-10-16T04:01:31.132Z,0.00
2023-10-16T04:02:01.928Z,0.00
2023-10-16T04:02:33.016Z,0.00
2023-10-16T04:03:04.611Z,0.00
2023-10-16T04:03:35.059Z,0.00
2023-10-16T04:04:08.371Z,0.00
2023-10-16T04:04:37.556Z,0.00
2023-10-16T04:05:08.241Z,0.00
2023-10-16T04:05:39.344Z,0.00
2023-10-16T04:06:10.144Z,0.00
2023-10-16T04:06:41.151Z,0.00
2023-10-16T04:07:11.907Z,0.00
2023-10-16T04:07:42.963Z,0.00
2023-10-16T04:08:14.645Z,0.00
2023-10-16T04:08:45.354Z,0.00
2023-10-16T04:09:16.185Z,0.00
2023-10-16T04:09:48.317Z,0.00
2023-10-16T04:10:18.576Z,0.00
2023-10-16T04:10:49.303Z,0.00
2023-10-16T04:11:20.510Z,0.00
2023-10-16T04:11:50.968Z,0.00
2023-10-16T04:12:23.208Z,0.00
2023-10-16T04:12:53.542Z,0.00
2023-10-16T04:13:25.720Z,0.00
2023-10-16T04:13:55.497Z,0.00
2023-10-16T04:14:27.193Z,0.00
2023-10-16T04:14:58.398Z,0.00
2023-10-16T04:15:33.367Z,0.00
2023-10-16T04:16:04.109Z,0.00
2023-10-16T04:16:33.391Z,0.00
2023-10-16T04:17:01.311Z,0.00
2023-10-16T04:17:55.119Z,0.00
2023-10-16T04:18:07.962Z,0.00
2023-10-16T04:19:27.205Z,0.00
2023-10-16T04:19:37.724Z,0.00
2023-10-16T04:20:07.438Z,0.00
2023-10-16T04:20:38.996Z,0.00
2023-10-16T04:21:09.010Z,0.00
2023-10-16T04:21:41.074Z,0.00
2023-10-16T04:22:12.211Z,0.00
2023-10-16T04:23:21.293Z,0.00
2023-10-16T04:23:47.041Z,0.00
2023-10-16T04:24:16.418Z,0.00
2023-10-16T04:24:47.421Z,0.00
2023-10-16T04:25:17.461Z,0.00
2023-10-16T04:25:48.184Z,0.00
2023-10-16T04:26:19.936Z,0.00
2023-10-16T04:26:50.851Z,0.00
2023-10-16T04:27:20.956Z,0.00
2023-10-16T04:27:52.381Z,0.00
2023-10-16T04:28:23.440Z,0.00
2023-10-16T04:28:54.212Z,0.00
2023-10-16T04:29:25.481Z,0.00
2023-10-16T04:29:56.474Z,0.00
2023-10-16T04:30:30.395Z,0.00
2023-10-16T04:31:00.625Z,0.00
2023-10-16T04:31:29.537Z,0.00
2023-10-16T04:32:32.278Z,0.00
2023-10-16T04:33:02.976Z,0.00
2023-10-16T04:33:33.497Z,0.00
2023-10-16T04:34:05.012Z,0.00
2023-10-16T04:34:36.655Z,0.00
2023-10-16T04:35:07.296Z,0.00
2023-10-16T04:35:38.661Z,0.00
2023-10-16T04:36:11.346Z,0.00
2023-10-16T04:36:57.939Z,0.00
2023-10-16T04:37:12.289Z,0.00
2023-10-16T04:37:42.382Z,0.00
2023-10-16T04:38:15.011Z,0.00
2023-10-16T04:38:44.935Z,0.00
2023-10-16T04:39:14.378Z,0.00
2023-10-16T04:39:45.398Z,0.00
2023-10-16T04:40:18.061Z,0.00
2023-10-16T04:41:19.122Z,0.00
2023-10-16T04:41:50.172Z,0.00
2023-10-16T04:42:20.790Z,0.00
2023-10-16T04:42:51.623Z,0.00
2023-10-16T04:43:22.474Z,0.00
2023-10-16T04:43:52.980Z,0.00
2023-10-16T04:44:26.606Z,0.00
2023-10-16T04:44:55.983Z,0.00
2023-10-16T04:45:30.361Z,0.00
2023-10-16T04:45:57.873Z,0.00
2023-10-16T04:46:29.848Z,0.00
2023-10-16T04:47:01.568Z,0.00
2023-10-16T04:47:30.220Z,0.00
2023-10-16T04:48:02.799Z,0.00
2023-10-16T04:48:33.078Z,0.00
2023-10-16T04:49:05.061Z,0.00
2023-10-16T04:49:34.013Z,0.00
2023-10-16T04:50:05.868Z,0.00
2023-10-16T04:51:00.989Z,0.00
2023-10-16T04:51:52.343Z,0.00
2023-10-16T04:52:32.942Z,0.00
2023-10-16T04:52:46.128Z,0.00
2023-10-16T04:53:15.769Z,0.00
2023-10-16T04:53:50.405Z,0.00
2023-10-16T04:54:20.022Z,0.00
2023-10-16T04:54:53.025Z,0.00
2023-10-16T04:55:19.837Z,0.00
2023-10-16T04:55:51.165Z,0.00
2023-10-16T04:56:24.463Z,0.00
2023-10-16T04:56:55.599Z,0.00
2023-10-16T04:57:24.691Z,0.00
2023-10-16T04:57:58.679Z,0.00
2023-10-16T04:58:28.377Z,0.00
2023-10-16T04:59:00.225Z,0.00
2023-10-16T04:59:33.103Z,0.00
2023-10-16T05:00:04.870Z,0.00
2023-10-16T05:00:28.793Z,0.00
2023-10-16T05:01:01.449Z,0.00
2023-10-16T05:01:34.203Z,0.00
2023-10-16T05:02:05.767Z,0.00
2023-10-16T05:02:35.912Z,0.00
2023-10-16T05:03:06.408Z,0.00
2023-10-16T05:03:38.902Z,0.00
2023-10-16T05:04:07.593Z,0.00
2023-10-16T05:04:38.664Z,0.00
2023-10-16T05:05:08.881Z,0.00
2023-10-16T05:05:43.244Z,0.00
2023-10-16T05:06:14.658Z,0.00
2023-10-16T05:06:45.627Z,0.00
2023-10-16T05:07:16.791Z,0.00
2023-10-16T05:07:43.938Z,0.00
2023-10-16T05:08:15.627Z,0.00
2023-10-16T05:09:05.330Z,0.00
2023-10-16T05:09:18.016Z,0.00
2023-10-16T05:09:49.726Z,0.00
2023-10-16T05:10:19.465Z,0.00
2023-10-16T05:10:48.718Z,0.00
2023-10-16T05:11:36.450Z,0.00
2023-10-16T05:11:55.012Z,0.00
2023-10-16T05:12:40.313Z,0.00
2023-10-16T05:12:56.732Z,0.00
2023-10-16T05:13:53.225Z,0.00
2023-10-16T05:14:38.971Z,0.00
2023-10-16T05:15:12.829Z,0.00
2023-10-16T05:16:08.721Z,0.00
2023-10-16T05:16:40.285Z,0.00
2023-10-16T05:17:01.092Z,0.00
2023-10-16T05:17:34.552Z,0.00
2023-10-16T05:18:04.376Z,0.00
2023-10-16T05:18:40.765Z,0.00
2023-10-16T05:19:24.528Z,0.00
2023-10-16T05:19:33.333Z,0.00
2023-10-16T05:20:07.063Z,0.00
2023-10-16T05:20:37.826Z,0.00
2023-10-16T05:21:15.435Z,0.00
2023-10-16T05:22:08.474Z,0.00
2023-10-16T05:22:40.324Z,0.00
2023-10-16T05:23:13.656Z,0.00
2023-10-16T05:23:43.205Z,0.00
2023-10-16T05:24:18.232Z,0.00
2023-10-16T05:24:45.917Z,0.00
2023-10-16T05:25:18.162Z,0.00
2023-10-16T05:25:49.868Z,0.00
2023-10-16T05:26:18.023Z,0.00
2023-10-16T05:26:49.357Z,0.00
2023-10-16T05:27:20.571Z,0.00
2023-10-16T05:27:50.138Z,0.00
2023-10-16T05:28:24.716Z,0.00
2023-10-16T05:28:55.572Z,0.00
2023-10-16T05:29:35.857Z,0.00
2023-10-16T05:29:57.906Z,0.00
2023-10-16T05:30:29.501Z,0.00
2023-10-16T05:31:01.436Z,0.00
2023-10-16T05:34:01.540Z,0.00
2023-10-16T05:34:55.333Z,0.00
2023-10-16T05:35:05.465Z,0.00
2023-10-16T05:35:36.692Z,0.00
2023-10-16T05:36:08.012Z,0.00
2023-10-16T05:36:39.758Z,0.36
2023-10-16T05:37:08.339Z,0.36
2023-10-16T05:37:40.227Z,0.36
2023-10-16T05:38:22.822Z,0.00
2023-10-16T05:39:34.339Z,0.00
2023-10-16T05:39:42.763Z,0.85
2023-10-16T05:40:16.762Z,0.36
2023-10-16T05:40:46.018Z,0.85
2023-10-16T05:41:16.822Z,0.85
2023-10-16T05:41:47.133Z,0.85
2023-10-16T05:42:17.380Z,1.22
2023-10-16T05:42:47.962Z,2.08
2023-10-16T05:43:19.785Z,1.71
2023-10-16T05:43:50.275Z,2.08
2023-10-16T05:44:20.566Z,1.71
2023-10-16T05:44:51.829Z,1.71
2023-10-16T05:45:24.673Z,1.71
2023-10-16T05:45:56.976Z,2.57
2023-10-16T05:46:27.476Z,3.43
2023-10-16T05:46:56.895Z,2.08
2023-10-16T05:47:28.640Z,2.94
2023-10-16T05:47:58.332Z,2.57
2023-10-16T05:48:29.879Z,3.43
2023-10-16T05:49:01.002Z,3.79
2023-10-16T05:49:49.514Z,3.43
2023-10-16T05:50:02.594Z,3.43
2023-10-16T05:55:43.621Z,3.79
2023-10-16T05:56:46.837Z,5.63
2023-10-16T05:57:18.270Z,6.85
2023-10-16T05:57:49.680Z,6.85
2023-10-16T05:58:19.898Z,6.85
2023-10-16T05:58:49.709Z,6.48
2023-10-16T05:59:20.242Z,7.34
2023-10-16T05:59:51.590Z,6.85
2023-10-16T06:00:26.120Z,6.85
2023-10-16T06:01:10.289Z,8.19
2023-10-16T06:01:23.628Z,7.70
2023-10-16T06:02:14.761Z,8.19
2023-10-16T06:02:28.728Z,8.19
2023-10-16T06:02:58.291Z,9.05
2023-10-16T06:03:29.143Z,9.05
2023-10-16T06:04:00.136Z,9.91
2023-10-16T06:04:30.412Z,10.39
2023-10-16T06:05:02.764Z,9.54
2023-10-16T06:05:33.178Z,9.91
2023-10-16T06:06:10.429Z,9.91
2023-10-16T06:06:37.533Z,9.91
2023-10-16T06:07:06.967Z,10.77
2023-10-16T06:07:39.288Z,10.77
2023-10-16T06:08:09.423Z,10.77
2023-10-16T06:08:47.086Z,10.39
2023-10-16T06:09:11.730Z,11.25
2023-10-16T06:09:41.460Z,12.48
2023-10-16T06:10:13.366Z,11.25
2023-10-16T06:10:43.690Z,11.25
2023-10-16T06:11:13.746Z,12.11
2023-10-16T06:11:46.541Z,12.48
2023-10-16T06:12:16.954Z,12.11
2023-10-16T06:12:48.744Z,12.48
2023-10-16T06:13:50.254Z,12.97
2023-10-16T06:14:21.288Z,13.33
2023-10-16T06:14:50.824Z,13.33
2023-10-16T06:15:22.437Z,13.82
2023-10-16T06:15:53.118Z,13.33
2023-10-16T06:16:24.060Z,14.68
2023-10-16T06:16:55.030Z,14.31
2023-10-16T06:17:27.325Z,14.31
2023-10-16T06:18:00.219Z,15.17
2023-10-16T06:18:29.965Z,14.68
2023-10-16T06:18:59.456Z,14.68
2023-10-16T06:19:31.149Z,16.02
2023-10-16T06:20:32.122Z,16.02
2023-10-16T06:21:02.966Z,14.68
2023-10-16T06:21:35.508Z,16.39
2023-10-16T06:22:39.490Z,16.88
2023-10-16T06:23:09.191Z,16.39
2023-10-16T06:23:40.882Z,17.25
2023-10-16T06:24:10.877Z,17.25
2023-10-16T06:24:41.759Z,17.73
2023-10-16T06:25:12.303Z,17.25
2023-10-16T06:26:03.481Z,17.25
2023-10-16T06:26:14.979Z,18.11
2023-10-16T06:26:47.336Z,17.25
2023-10-16T06:27:18.227Z,17.25
2023-10-16T06:27:48.449Z,18.60
2023-10-16T06:28:21.012Z,19.08
2023-10-16T06:28:51.059Z,19.45
2023-10-16T06:29:21.359Z,19.08
2023-10-16T06:29:51.608Z,24.22
2023-10-16T06:30:23.165Z,29.85
2023-10-16T06:30:52.967Z,35.97
2023-10-16T06:31:22.917Z,39.02
2023-10-16T06:31:54.666Z,39.39
2023-10-16T06:32:26.400Z,39.88
2023-10-16T06:32:56.715Z,41.10
2023-10-16T06:33:29.748Z,41.59
2023-10-16T06:33:59.941Z,42.45
2023-10-16T06:34:30.914Z,42.45
2023-10-16T06:35:01.039Z,42.94
2023-10-16T06:35:32.005Z,42.94
2023-10-16T06:36:20.522Z,42.94
2023-10-16T06:36:32.371Z,43.80
2023-10-16T06:37:04.660Z,42.45
2023-10-16T06:37:35.121Z,42.45
2023-10-16T06:38:06.500Z,41.96
2023-10-16T06:38:38.172Z,40.24
2023-10-16T06:39:10.757Z,36.33
2023-10-16T06:39:41.540Z,33.39
2023-10-16T06:40:13.718Z,29.85
2023-10-16T06:40:51.115Z,27.65
2023-10-16T06:41:12.255Z,26.79
2023-10-16T06:41:44.458Z,26.42
2023-10-16T06:42:14.059Z,25.56
2023-10-16T06:42:45.017Z,26.79
2023-10-16T06:43:17.106Z,25.56
2023-10-16T06:43:48.148Z,26.42
2023-10-16T06:44:21.450Z,26.79
2023-10-16T06:44:50.350Z,27.28
2023-10-16T06:45:21.293Z,26.42
2023-10-16T06:45:52.621Z,27.65
2023-10-16T06:46:59.975Z,27.65
2023-10-16T06:47:06.290Z,28.63
2023-10-16T06:47:25.274Z,28.63
2023-10-16T06:47:55.304Z,28.14
2023-10-16T06:48:29.156Z,29.48
2023-10-16T06:48:59.033Z,28.99
2023-10-16T06:49:29.113Z,29.85
2023-10-16T06:50:01.496Z,29.85
2023-10-16T06:50:31.485Z,30.34
2023-10-16T06:51:03.168Z,30.34
2023-10-16T06:51:32.675Z,30.70
2023-10-16T06:52:03.333Z,31.19
2023-10-16T06:52:34.803Z,31.19
2023-10-16T06:53:05.441Z,31.56
2023-10-16T06:53:37.360Z,32.05
2023-10-16T06:54:08.445Z,31.56
2023-10-16T06:54:40.735Z,33.39
2023-10-16T06:55:11.944Z,32.90
2023-10-16T06:55:42.242Z,35.11
2023-10-16T06:56:11.912Z,36.33
2023-10-16T06:56:42.389Z,36.33
2023-10-16T06:57:13.858Z,34.62
2023-10-16T06:57:44.086Z,36.33
2023-10-16T06:58:15.593Z,39.39
2023-10-16T06:58:45.935Z,39.39
2023-10-16T06:59:18.294Z,39.88
2023-10-16T06:59:50.474Z,41.10
2023-10-16T07:00:23.374Z,42.45
2023-10-16T07:00:52.318Z,51.99
2023-10-16T07:01:22.208Z,43.31
2023-10-16T07:01:53.037Z,62.88
2023-10-16T07:02:23.405Z,62.02
2023-10-16T07:02:55.123Z,43.80
2023-10-16T07:03:25.983Z,61.17
2023-10-16T07:04:02.458Z,55.90
2023-10-16T07:04:29.276Z,54.56
2023-10-16T07:05:00.722Z,55.05
2023-10-16T07:05:31.695Z,54.19
2023-10-16T07:06:01.565Z,55.90
2023-10-16T07:06:32.502Z,55.90
2023-10-16T07:07:02.810Z,56.76
2023-10-16T07:07:33.066Z,60.68
2023-10-16T07:08:03.808Z,68.02
2023-10-16T07:08:36.059Z,85.02
2023-10-16T07:09:05.823Z,73.65
2023-10-16T07:09:36.719Z,69.36
2023-10-16T07:10:10.412Z,70.71
2023-10-16T07:10:42.259Z,75.85
2023-10-16T07:11:11.330Z,77.56
2023-10-16T07:11:41.792Z,78.41
2023-10-16T07:12:14.001Z,78.90
2023-10-16T07:12:43.350Z,81.10
2023-10-16T07:13:14.453Z,83.19
2023-10-16T07:13:45.783Z,78.90
2023-10-16T07:14:16.090Z,81.10
2023-10-16T07:14:47.279Z,87.96
2023-10-16T07:15:21.208Z,91.51
2023-10-16T07:15:51.173Z,92.73
2023-10-16T07:16:21.946Z,92.36
2023-10-16T07:16:51.706Z,91.51
2023-10-16T07:17:23.708Z,96.65
2023-10-16T07:17:53.640Z,98.85
2023-10-16T07:18:42.606Z,101.05
2023-10-16T07:18:55.244Z,100.56
2023-10-16T07:19:26.459Z,99.34
2023-10-16T07:19:56.715Z,97.50
2023-10-16T07:20:30.576Z,95.79
2023-10-16T07:21:00.966Z,92.73
2023-10-16T07:25:50.274Z,76.34
2023-10-16T07:26:10.993Z,75.85
2023-10-16T07:26:42.162Z,77.19
2023-10-16T07:27:30.509Z,78.05
2023-10-16T07:27:42.394Z,76.34
2023-10-16T07:28:13.468Z,76.34
2023-10-16T07:28:44.799Z,74.50
2023-10-16T07:29:15.127Z,78.05
2023-10-16T07:29:45.754Z,80.25
2023-10-16T07:30:19.297Z,80.62
2023-10-16T07:30:54.510Z,81.97
2023-10-16T07:31:21.856Z,82.33
2023-10-16T07:31:51.826Z,83.19
2023-10-16T07:32:22.222Z,83.19
2023-10-16T07:32:53.836Z,83.68
2023-10-16T07:33:24.128Z,85.39
2023-10-16T07:33:54.287Z,86.73
2023-10-16T07:34:26.076Z,86.73
2023-10-16T07:34:56.117Z,71.56
2023-10-16T07:35:27.704Z,87.59